Time;durP1;ratioP1;P1;durP2;ratioP2;P2;SDS_P1;SDS_P2;PMS_P1;PMS_P2;Temp;Humidity;BMP_temperature;BMP_pressure;BME280_temperature;BME280_humidity;BME280_pressure;Samples;Min_cycle;Max_cycle;Signal;HPM_P1;HPM_P2
2022/03/11 00:02:07;;;;;;;;;;;;;;;2.73;40.51;93045.06;2040599;70;20120;-74
2022/03/11 00:04:33;;;;;;;;;;;;;;;2.75;40.02;93046.00;2041082;70;20519;-75
2022/03/11 00:06:58;;;;;;;;;;;;;;;2.70;39.91;93044.16;2040602;70;20044;-74
2022/03/11 00:09:24;;;;;;;;;;;;;;;2.88;39.43;93050.66;2041140;70;20056;-74
2022/03/11 00:11:49;;;;;;;;;;;;;;;2.58;40.92;93056.16;2040652;70;20135;-75
2022/03/11 00:14:16;;;;;;;;;;;;;;;2.49;40.82;93049.81;2040853;70;20464;-75
2022/03/11 00:16:42;;;;;;;;;;;;;;;2.39;41.84;93054.41;2041064;70;20039;-76
2022/03/11 00:19:08;;;;;;;;;;;;;;;2.68;40.78;93054.31;2041112;70;20211;-74
2022/03/11 00:21:35;;;;;;;;;;;;;;;2.93;39.29;93052.56;2041090;70;20151;-75
2022/03/11 00:24:00;;;;;;;;;;;;;;;2.72;40.52;93054.72;2041308;70;20059;-74
2022/03/11 00:26:26;;;;;;;;;;;;;;;2.54;40.25;93053.72;2041124;70;20417;-75
2022/03/11 00:28:52;;;;;;;;;;;;;;;2.53;41.02;93049.47;2040887;70;20056;-76
2022/03/11 00:31:18;;;;;;;;;;;;;;;2.61;39.81;93046.69;2040866;70;20147;-74
2022/03/11 00:33:43;;;;;;;;;;;;;;;2.57;40.68;93052.63;2041223;70;20163;-73
2022/03/11 00:36:09;;;;;;;;;;;;;;;2.52;40.46;93045.94;2041061;70;20058;-74
2022/03/11 00:38:35;;;;;;;;;;;;;;;2.37;41.31;93045.13;2041046;70;20086;-74
2022/03/11 00:41:00;;;;;;;;;;;;;;;2.34;41.56;93049.00;2041025;70;20083;-75
2022/03/11 00:43:26;;;;;;;;;;;;;;;2.42;40.72;93053.28;2040900;70;20051;-76
2022/03/11 00:45:52;;;;;;;;;;;;;;;2.64;38.82;93054.69;2040359;70;20119;-74
2022/03/11 00:48:17;;;;;;;;;;;;;;;2.28;40.72;93052.69;2040960;70;20625;-75
2022/03/11 00:50:43;;;;;;;;;;;;;;;2.19;41.69;93053.19;2040771;70;20094;-75
2022/03/11 00:53:09;;;;;;;;;;;;;;;2.18;41.66;93050.97;2041013;70;20497;-75
2022/03/11 00:55:35;;;;;;;;;;;;;;;2.12;42.26;93044.84;2040928;70;20496;-74
2022/03/11 00:58:00;;;;;;;;;;;;;;;2.04;41.67;93042.00;2040933;70;20047;-74
2022/03/11 01:00:26;;;;;;;;;;;;;;;2.23;40.90;93044.50;2042645;70;20052;-76
2022/03/11 01:02:52;;;;;;;;;;;;;;;2.25;41.63;93042.69;2040996;70;20127;-75
2022/03/11 01:05:17;;;;;;;;;;;;;;;1.98;42.74;93044.94;2040920;70;20082;-76
2022/03/11 01:07:43;;;;;;;;;;;;;;;1.94;42.25;93043.81;2040898;70;20528;-76
2022/03/11 01:10:10;;;;;;;;;;;;;;;2.29;40.74;93045.06;2040785;70;20155;-76
2022/03/11 01:12:35;;;;;;;;;;;;;;;1.93;42.75;93042.31;2040940;70;20059;-74
2022/03/11 01:15:00;;;;;;;;;;;;;;;2.24;40.68;93049.50;2040777;70;20048;-77
2022/03/11 01:17:26;;;;;;;;;;;;;;;2.01;41.35;93043.84;2040873;70;20052;-77
2022/03/11 01:19:52;;;;;;;;;;;;;;;1.96;41.87;93038.44;2040886;70;20493;-76
2022/03/11 01:22:18;;;;;;;;;;;;;;;1.71;43.62;93038.84;2040789;70;20044;-76
2022/03/11 01:24:43;;;;;;;;;;;;;;;1.77;42.98;93044.25;2040330;70;20075;-77
2022/03/11 01:27:09;;;;;;;;;;;;;;;1.64;44.17;93042.31;2040923;70;20039;-76
2022/03/11 01:29:35;;;;;;;;;;;;;;;1.67;43.55;93044.00;2040770;70;20079;-76
2022/03/11 01:32:01;;;;;;;;;;;;;;;1.82;42.15;93037.81;2040684;70;20111;-76
2022/03/11 01:34:26;;;;;;;;;;;;;;;1.85;42.34;93033.19;2041458;70;20047;-77
2022/03/11 01:36:52;;;;;;;;;;;;;;;1.56;42.91;93029.66;2041423;70;20060;-73
2022/03/11 01:39:17;;;;;;;;;;;;;;;2.03;40.40;93027.38;2041199;70;20575;-74
2022/03/11 01:41:43;;;;;;;;;;;;;;;1.84;41.31;93023.41;2037949;70;20079;-76
2022/03/11 01:44:10;;;;;;;;;;;;;;;1.81;42.02;93025.22;2041235;70;20500;-76
2022/03/11 01:46:36;;;;;;;;;;;;;;;1.71;42.57;93019.44;2041228;70;20051;-76
2022/03/11 01:49:02;;;;;;;;;;;;;;;1.69;42.44;93015.69;2041365;70;20048;-76
2022/03/11 01:51:28;;;;;;;;;;;;;;;1.94;40.19;93025.09;2041291;70;20419;-74
2022/03/11 01:53:54;;;;;;;;;;;;;;;1.87;42.04;93011.19;2041339;70;20155;-75
2022/03/11 01:56:21;;;;;;;;;;;;;;;1.89;41.40;93012.13;2041297;70;20573;-77
2022/03/11 01:58:47;;;;;;;;;;;;;;;2.10;40.82;93003.69;2040448;70;20098;-76
2022/03/11 02:01:13;;;;;;;;;;;;;;;2.08;40.21;93005.56;2041508;70;20116;-77
2022/03/11 02:03:38;;;;;;;;;;;;;;;1.18;43.96;93000.34;2041681;70;20111;-76
2022/03/11 02:06:05;;;;;;;;;;;;;;;1.56;43.32;92999.91;2041466;70;20043;-77
2022/03/11 02:08:31;;;;;;;;;;;;;;;1.68;42.87;93003.13;2041710;70;20135;-76
2022/03/11 02:10:57;;;;;;;;;;;;;;;1.71;42.41;93002.78;2041726;70;20407;-77
2022/03/11 02:13:22;;;;;;;;;;;;;;;1.57;42.81;92998.63;2041668;70;20123;-76
2022/03/11 02:15:48;;;;;;;;;;;;;;;1.56;42.27;92996.38;2041509;70;20115;-76
2022/03/11 02:18:13;;;;;;;;;;;;;;;1.60;42.59;92991.97;2041527;70;20154;-76
2022/03/11 02:20:39;;;;;;;;;;;;;;;1.67;41.81;92998.84;2041057;70;20048;-77
2022/03/11 02:23:07;;;;;;;;;;;;;;;1.68;41.36;92998.31;2041540;70;20047;-76
2022/03/11 02:25:32;;;;;;;;;;;;;;;1.57;42.94;92995.09;2041542;70;20481;-76
2022/03/11 02:27:58;;;;;;;;;;;;;;;1.59;42.65;92989.75;2041519;70;20044;-77
2022/03/11 02:30:23;;;;;;;;;;;;;;;1.53;42.33;92996.19;2041494;70;20419;-76
2022/03/11 02:32:49;;;;;;;;;;;;;;;1.57;42.75;93001.38;2041477;70;20501;-74
2022/03/11 02:35:14;;;;;;;;;;;;;;;1.70;41.02;92989.44;2041648;70;20093;-76
2022/03/11 02:37:40;;;;;;;;;;;;;;;1.70;42.15;93001.28;2041481;70;20047;-76
2022/03/11 02:40:06;;;;;;;;;;;;;;;1.50;42.78;93000.03;2041097;70;20055;-76
2022/03/11 02:42:33;;;;;;;;;;;;;;;1.21;44.73;92993.72;2040951;70;20051;-76
2022/03/11 02:44:59;;;;;;;;;;;;;;;0.87;45.81;92993.84;2041217;70;20147;-77
2022/03/11 02:47:25;;;;;;;;;;;;;;;1.17;43.70;92998.88;2041497;70;20512;-74
2022/03/11 02:49:51;;;;;;;;;;;;;;;1.27;43.30;92997.09;2041566;70;20079;-77
2022/03/11 02:52:17;;;;;;;;;;;;;;;1.34;42.44;93001.22;2041489;70;20051;-76
2022/03/11 02:54:42;;;;;;;;;;;;;;;1.41;41.63;92999.78;2041577;70;20051;-77
2022/03/11 02:57:08;;;;;;;;;;;;;;;1.24;43.64;93000.25;2041065;70;20048;-76
2022/03/11 02:59:33;;;;;;;;;;;;;;;1.25;42.27;92999.69;2041292;70;20082;-76
2022/03/11 03:02:00;;;;;;;;;;;;;;;1.25;43.97;92987.84;2041489;70;20504;-75
2022/03/11 03:04:25;;;;;;;;;;;;;;;1.34;43.73;92990.13;2041474;70;20051;-77
2022/03/11 03:06:50;;;;;;;;;;;;;;;1.11;45.22;92989.97;2041429;70;20039;-76
2022/03/11 03:09:16;;;;;;;;;;;;;;;1.13;43.64;92986.63;2041472;70;20051;-75
2022/03/11 03:11:41;;;;;;;;;;;;;;;1.04;44.83;92990.63;2041525;70;20489;-77
2022/03/11 03:14:07;;;;;;;;;;;;;;;1.19;43.16;92976.91;2041431;70;20577;-76
2022/03/11 03:16:33;;;;;;;;;;;;;;;1.14;43.07;92977.78;2041456;70;20071;-77
2022/03/11 03:18:59;;;;;;;;;;;;;;;1.09;44.30;92977.91;2041428;70;20500;-77
2022/03/11 03:21:27;;;;;;;;;;;;;;;1.23;nan;92974.50;2041437;70;20146;-74
2022/03/11 03:23:53;;;;;;;;;;;;;;;1.13;43.26;92975.53;2040978;70;20047;-74
2022/03/11 03:26:18;;;;;;;;;;;;;;;1.08;43.96;92982.72;2041446;70;20056;-75
2022/03/11 03:28:44;;;;;;;;;;;;;;;0.93;43.88;92974.28;2040820;70;20158;-75
2022/03/11 03:31:21;;;;;;;;;;;;;;;1.09;43.25;92978.66;2041038;70;20059;-75
2022/03/11 03:33:47;;;;;;;;;;;;;;;1.10;43.98;92976.63;2040905;70;20047;-74
2022/03/11 03:36:13;;;;;;;;;;;;;;;0.94;43.26;92984.09;2041396;70;20091;-77
2022/03/11 03:38:38;;;;;;;;;;;;;;;0.96;43.03;92976.72;2041404;70;20480;-77
2022/03/11 03:41:04;;;;;;;;;;;;;;;0.91;43.91;92974.06;2041510;70;20047;-76
2022/03/11 03:43:32;;;;;;;;;;;;;;;0.90;43.82;92975.38;2040873;70;20044;-75
2022/03/11 03:45:58;;;;;;;;;;;;;;;0.92;43.60;92979.09;2041237;70;20141;-76
2022/03/11 03:48:23;;;;;;;;;;;;;;;0.93;43.30;92980.56;2041344;70;20051;-76
2022/03/11 03:50:49;;;;;;;;;;;;;;;0.93;43.08;92977.81;2040789;70;20098;-74
2022/03/11 03:53:14;;;;;;;;;;;;;;;0.97;43.26;92978.22;2041336;70;20050;-76
2022/03/11 03:55:40;;;;;;;;;;;;;;;0.94;43.56;92981.31;2041307;70;20044;-76
2022/03/11 03:58:05;;;;;;;;;;;;;;;0.93;43.25;92985.38;2041297;70;20087;-75
2022/03/11 04:00:31;;;;;;;;;;;;;;;0.70;45.11;92980.38;2040590;70;20140;-75
2022/03/11 04:02:56;;;;;;;;;;;;;;;0.83;43.59;92981.59;2041343;70;20050;-75
2022/03/11 04:05:21;;;;;;;;;;;;;;;0.79;44.13;92986.72;2041341;70;20044;-75
2022/03/11 04:07:49;;;;;;;;;;;;;;;0.86;43.23;92984.00;2040820;70;20501;-74
2022/03/11 04:10:16;;;;;;;;;;;;;;;0.42;45.62;92971.97;2041421;70;20087;-72
2022/03/11 04:12:41;;;;;;;;;;;;;;;0.81;42.69;92971.03;2043186;70;20048;-75
2022/03/11 04:15:07;;;;;;;;;;;;;;;0.79;44.46;92973.63;2041170;70;20118;-76
2022/03/11 04:17:33;;;;;;;;;;;;;;;0.76;44.50;92972.66;2041285;70;20056;-75
2022/03/11 04:19:59;;;;;;;;;;;;;;;0.72;44.22;92969.47;2040770;70;20151;-75
2022/03/11 04:22:25;;;;;;;;;;;;;;;0.63;44.78;92963.66;2041282;70;20043;-77
2022/03/11 04:24:51;;;;;;;;;;;;;;;0.89;43.76;92965.56;2041309;70;20122;-77
2022/03/11 04:27:16;;;;;;;;;;;;;;;0.74;43.77;92960.66;2041338;70;20051;-76
2022/03/11 04:29:42;;;;;;;;;;;;;;;0.93;41.14;92961.16;2041150;70;20051;-77
2022/03/11 04:32:07;;;;;;;;;;;;;;;0.47;45.87;92963.53;2041235;70;20137;-77
2022/03/11 04:34:36;;;;;;;;;;;;;;;0.73;44.77;92959.13;2041364;70;20055;-77
2022/03/11 04:37:01;;;;;;;;;;;;;;;0.59;44.36;92954.94;2040872;70;20052;-76
2022/03/11 04:39:27;;;;;;;;;;;;;;;0.59;44.31;92949.41;2041231;70;20469;-74
2022/03/11 04:41:56;;;;;;;;;;;;;;;0.34;45.10;92949.72;2041296;70;20122;-73
2022/03/11 04:44:21;;;;;;;;;;;;;;;0.39;45.52;92951.63;2041183;70;20048;-76
2022/03/11 04:46:47;;;;;;;;;;;;;;;0.50;44.93;92948.59;2041242;70;20050;-74
2022/03/11 04:49:12;;;;;;;;;;;;;;;0.65;43.59;92948.00;2041319;70;20390;-74
2022/03/11 04:51:42;;;;;;;;;;;;;;;0.34;45.26;92949.72;2041431;70;20047;-75
2022/03/11 04:54:08;;;;;;;;;;;;;;;0.54;44.37;92961.34;2041342;70;20142;-75
2022/03/11 04:56:34;;;;;;;;;;;;;;;0.52;43.76;92959.13;2041301;70;20224;-75
2022/03/11 04:58:59;;;;;;;;;;;;;;;0.46;44.32;92964.81;2041084;70;20666;-77
2022/03/11 05:01:27;;;;;;;;;;;;;;;0.61;43.18;92960.69;2041329;70;20488;-77
2022/03/11 05:03:53;;;;;;;;;;;;;;;0.74;42.93;92966.19;2041331;70;20064;-77
2022/03/11 05:06:18;;;;;;;;;;;;;;;0.73;43.55;92964.69;2041180;70;20127;-78
2022/03/11 05:08:44;;;;;;;;;;;;;;;0.75;42.68;92962.88;2041545;70;20054;-77
2022/03/11 05:11:09;;;;;;;;;;;;;;;0.79;42.79;92956.25;2041175;70;20059;-75
2022/03/11 05:13:36;;;;;;;;;;;;;;;0.61;43.66;92957.94;2041178;70;20059;-74
2022/03/11 05:16:01;;;;;;;;;;;;;;;0.54;43.60;92956.56;2041590;70;20495;-76
2022/03/11 05:18:27;;;;;;;;;;;;;;;0.50;43.92;92961.69;2041701;70;20055;-77
2022/03/11 05:20:53;;;;;;;;;;;;;;;0.65;43.34;92958.34;2041843;70;20042;-76
2022/03/11 05:23:18;;;;;;;;;;;;;;;0.49;43.74;92960.22;2041705;70;20047;-77
2022/03/11 05:25:44;;;;;;;;;;;;;;;0.55;43.61;92951.75;2042007;70;20054;-75
2022/03/11 05:28:10;;;;;;;;;;;;;;;0.80;41.38;92955.69;2041645;70;20419;-77
2022/03/11 05:30:36;;;;;;;;;;;;;;;0.60;42.60;92959.22;2041516;70;20051;-76
2022/03/11 05:33:02;;;;;;;;;;;;;;;0.28;45.31;92968.50;2041669;70;20477;-76
2022/03/11 05:35:27;;;;;;;;;;;;;;;0.65;41.70;92966.66;2041666;70;20504;-77
2022/03/11 05:37:53;;;;;;;;;;;;;;;0.73;43.09;92971.00;2041717;70;20213;-77
2022/03/11 05:40:18;;;;;;;;;;;;;;;0.68;42.45;92971.84;2041678;70;20054;-77
2022/03/11 05:42:44;;;;;;;;;;;;;;;0.65;43.26;92963.88;2041657;70;20111;-77
2022/03/11 05:45:10;;;;;;;;;;;;;;;0.60;43.93;92973.81;2041612;70;20052;-75
2022/03/11 05:47:35;;;;;;;;;;;;;;;0.58;43.91;92972.84;2041631;70;20580;-75
2022/03/11 05:50:01;;;;;;;;;;;;;;;0.58;43.36;92979.13;2041617;70;20048;-77
2022/03/11 05:52:26;;;;;;;;;;;;;;;0.55;43.77;92976.69;2041146;70;20419;-74
2022/03/11 05:54:53;;;;;;;;;;;;;;;0.43;44.69;92976.22;2041697;70;20593;-75
2022/03/11 05:57:18;;;;;;;;;;;;;;;0.43;44.09;92979.72;2041583;70;20055;-76
2022/03/11 05:59:44;;;;;;;;;;;;;;;0.48;43.60;92970.56;2041413;70;20237;-78
2022/03/11 06:02:10;;;;;;;;;;;;;;;0.66;42.02;92971.66;2041710;70;20047;-76
2022/03/11 06:04:37;;;;;;;;;;;;;;;0.83;41.38;92974.03;2041605;70;20056;-78
2022/03/11 06:07:03;;;;;;;;;;;;;;;1.00;40.64;92973.59;2041562;70;20436;-77
2022/03/11 06:09:28;;;;;;;;;;;;;;;1.02;41.17;92979.34;2041630;70;20052;-77
2022/03/11 06:11:55;;;;;;;;;;;;;;;1.05;39.29;92975.47;2043742;70;20584;-77
2022/03/11 06:14:22;;;;;;;;;;;;;;;1.19;39.42;92974.13;2041532;70;20044;-77
2022/03/11 06:16:47;;;;;;;;;;;;;;;1.22;39.77;92975.81;2041814;70;20084;-78
2022/03/11 06:19:13;;;;;;;;;;;;;;;1.05;40.05;92971.97;2041567;70;20074;-74
2022/03/11 06:21:39;;;;;;;;;;;;;;;1.15;39.87;92973.00;2041593;70;20044;-77
2022/03/11 06:24:04;;;;;;;;;;;;;;;1.00;40.84;92979.13;2041038;70;20481;-74
2022/03/11 06:26:30;;;;;;;;;;;;;;;1.20;40.56;92972.09;2041570;70;20051;-76
2022/03/11 06:28:56;;;;;;;;;;;;;;;1.01;42.21;92986.19;2041069;70;20133;-76
2022/03/11 06:31:21;;;;;;;;;;;;;;;0.87;42.48;92973.66;2041573;70;20055;-77
2022/03/11 06:33:47;;;;;;;;;;;;;;;0.82;42.38;92980.09;2041556;70;20044;-77
2022/03/11 06:36:12;;;;;;;;;;;;;;;0.68;43.08;92984.94;2041568;70;20055;-75
2022/03/11 06:38:38;;;;;;;;;;;;;;;0.89;43.19;92988.47;2041122;70;20398;-78
2022/03/11 06:41:06;;;;;;;;;;;;;;;0.86;42.87;92978.47;2041735;70;20052;-78
2022/03/11 06:43:31;;;;;;;;;;;;;;;0.95;42.79;92983.53;2041692;70;20059;-77
2022/03/11 06:45:57;;;;;;;;;;;;;;;0.97;42.50;92986.53;2041479;70;20531;-78
2022/03/11 06:48:22;;;;;;;;;;;;;;;0.90;43.03;92989.22;2041523;70;20047;-78
2022/03/11 06:50:48;;;;;;;;;;;;;;;0.90;43.73;92992.72;2041461;70;20119;-78
2022/03/11 06:53:14;;;;;;;;;;;;;;;0.95;41.07;92991.09;2041461;70;20071;-77
2022/03/11 06:55:39;;;;;;;;;;;;;;;0.99;43.19;92994.28;2041511;70;20043;-77
2022/03/11 06:58:05;;;;;;;;;;;;;;;0.95;43.71;92988.34;2041476;70;20050;-78
2022/03/11 07:00:31;;;;;;;;;;;;;;;0.98;41.61;92993.56;2043232;70;20047;-77
2022/03/11 07:02:58;;;;;;;;;;;;;;;1.14;41.54;92988.88;2041520;70;20047;-77
2022/03/11 07:05:24;;;;;;;;;;;;;;;1.00;43.02;92995.78;2041090;70;20067;-78
2022/03/11 07:07:50;;;;;;;;;;;;;;;1.13;43.02;92992.19;2041447;70;20083;-78
2022/03/11 07:10:16;;;;;;;;;;;;;;;0.90;43.66;92994.78;2041427;70;20143;-77
2022/03/11 07:12:42;;;;;;;;;;;;;;;0.85;44.43;92992.88;2041561;70;20544;-76
2022/03/11 07:15:08;;;;;;;;;;;;;;;1.04;43.48;92995.44;2041337;70;20059;-75
2022/03/11 07:17:33;;;;;;;;;;;;;;;0.92;43.87;92994.97;2041435;70;20047;-75
2022/03/11 07:19:59;;;;;;;;;;;;;;;1.11;42.71;92995.50;2041403;70;20401;-76
2022/03/11 07:22:25;;;;;;;;;;;;;;;1.15;42.79;93000.72;2041405;70;20639;-76
2022/03/11 07:24:50;;;;;;;;;;;;;;;1.17;42.73;92989.81;2041545;70;20568;-76
2022/03/11 07:27:16;;;;;;;;;;;;;;;1.14;43.44;92994.41;2041387;70;20048;-75
2022/03/11 07:29:42;;;;;;;;;;;;;;;1.14;43.64;92988.88;2041301;70;20049;-74
2022/03/11 07:32:08;;;;;;;;;;;;;;;1.14;43.28;92986.09;2041262;70;20055;-75
2022/03/11 07:34:34;;;;;;;;;;;;;;;1.07;43.78;92980.50;2041562;70;20055;-76
2022/03/11 07:36:59;;;;;;;;;;;;;;;1.23;43.47;92977.28;2040978;70;20388;-75
2022/03/11 07:39:25;;;;;;;;;;;;;;;1.36;41.56;92981.25;2041475;70;20047;-75
2022/03/11 07:41:53;;;;;;;;;;;;;;;1.45;42.13;92980.78;2041438;70;20074;-77
2022/03/11 07:44:21;;;;;;;;;;;;;;;1.37;42.45;92979.97;2040731;70;20155;-75
2022/03/11 07:46:47;;;;;;;;;;;;;;;1.37;43.59;92977.19;2041382;70;20039;-75
2022/03/11 07:49:14;;;;;;;;;;;;;;;1.40;41.23;92984.44;2041380;70;20058;-73
2022/03/11 07:51:39;;;;;;;;;;;;;;;1.43;41.82;92983.34;2041290;70;20060;-74
2022/03/11 07:54:05;;;;;;;;;;;;;;;1.45;41.95;92980.78;2041483;70;20052;-75
2022/03/11 07:56:30;;;;;;;;;;;;;;;1.42;42.82;92979.06;2041364;70;20059;-73
2022/03/11 07:58:56;;;;;;;;;;;;;;;1.45;42.80;92980.78;2041117;70;20056;-76
2022/03/11 08:01:22;;;;;;;;;;;;;;;1.62;41.39;92974.78;2041475;70;20043;-75
2022/03/11 08:03:47;;;;;;;;;;;;;;;1.62;41.32;92975.50;2041348;70;20165;-74
2022/03/11 08:06:13;;;;;;;;;;;;;;;2.14;40.77;92976.31;2040782;70;20183;-74
2022/03/11 08:08:39;;;;;;;;;;;;;;;2.54;41.89;92970.34;2040779;70;20048;-74
2022/03/11 08:11:04;;;;;;;;;;;;;;;3.12;41.42;92968.03;2041708;70;20477;-75
2022/03/11 08:13:31;;;;;;;;;;;;;;;3.69;39.82;92957.19;2041365;70;20074;-76
2022/03/11 08:15:57;;;;;;;;;;;;;;;4.31;39.69;92966.09;2040672;70;20055;-74
2022/03/11 08:18:22;;;;;;;;;;;;;;;5.13;38.73;92961.91;2041252;70;20107;-75
2022/03/11 08:20:48;;;;;;;;;;;;;;;5.04;36.86;92958.44;2041236;70;20047;-76
2022/03/11 08:23:13;;;;;;;;;;;;;;;5.17;35.94;92953.88;2041232;70;20074;-75
2022/03/11 08:25:39;;;;;;;;;;;;;;;5.96;36.30;92965.31;2041265;70;20039;-76
2022/03/11 08:28:10;;;;;;;;;;;;;;;6.40;35.92;92962.56;2041244;70;20149;-77
2022/03/11 08:30:36;;;;;;;;;;;;;;;7.08;32.91;92957.38;2041146;70;20055;-77
2022/03/11 08:33:02;;;;;;;;;;;;;;;7.01;33.65;92958.22;2041225;70;20424;-77
2022/03/11 08:35:28;;;;;;;;;;;;;;;7.92;32.70;92946.88;2041789;70;20051;-76
2022/03/11 08:37:53;;;;;;;;;;;;;;;7.86;32.77;92945.09;2041686;70;20091;-77
2022/03/11 08:40:23;;;;;;;;;;;;;;;8.46;32.38;92944.56;2041414;70;20125;-77
2022/03/11 08:42:49;;;;;;;;;;;;;;;8.67;31.80;92946.75;2040985;70;20079;-77
2022/03/11 08:45:16;;;;;;;;;;;;;;;8.56;30.55;92944.56;2041160;70;20576;-77
2022/03/11 08:47:42;;;;;;;;;;;;;;;9.17;31.40;92940.44;2040670;70;20122;-77
2022/03/11 08:50:07;;;;;;;;;;;;;;;9.19;30.29;92943.38;2041376;70;20143;-77
2022/03/11 08:52:34;;;;;;;;;;;;;;;9.68;29.84;92947.47;2041302;70;20058;-77
2022/03/11 08:55:00;;;;;;;;;;;;;;;9.77;27.67;92945.94;2041116;70;20485;-75
2022/03/11 08:57:25;;;;;;;;;;;;;;;9.91;26.98;92940.53;2040744;70;20137;-76
2022/03/11 08:59:51;;;;;;;;;;;;;;;10.71;27.00;92948.53;2040389;70;20047;-75
2022/03/11 09:02:17;;;;;;;;;;;;;;;10.54;28.00;92943.97;2041294;70;20138;-75
2022/03/11 09:04:43;;;;;;;;;;;;;;;11.13;28.63;92942.03;2041121;70;20052;-76
2022/03/11 09:07:08;;;;;;;;;;;;;;;11.11;28.16;92936.28;2040236;70;20397;-75
2022/03/11 09:09:36;;;;;;;;;;;;;;;11.78;27.77;92931.94;2041287;70;20067;-75
2022/03/11 09:12:02;;;;;;;;;;;;;;;11.58;26.38;92931.44;2041175;70;20141;-74
2022/03/11 09:14:28;;;;;;;;;;;;;;;12.40;25.96;92931.34;2041218;70;20040;-74
2022/03/11 09:16:53;;;;;;;;;;;;;;;12.41;25.02;92923.63;2041289;70;20044;-74
2022/03/11 09:19:19;;;;;;;;;;;;;;;11.52;24.83;92922.63;2041307;70;20083;-76
2022/03/11 09:21:44;;;;;;;;;;;;;;;12.25;24.92;92919.88;2041165;70;20059;-75
2022/03/11 09:24:10;;;;;;;;;;;;;;;13.01;24.84;92919.19;2041629;70;20051;-75
2022/03/11 09:26:35;;;;;;;;;;;;;;;13.47;23.48;92904.81;2041301;70;20047;-75
2022/03/11 09:29:01;;;;;;;;;;;;;;;14.83;22.04;92912.38;2040589;70;20054;-76
2022/03/11 09:31:28;;;;;;;;;;;;;;;13.96;21.49;92901.69;2041132;70;20047;-75
2022/03/11 09:33:54;;;;;;;;;;;;;;;14.09;21.98;92902.31;2041162;70;20459;-76
2022/03/11 09:36:19;;;;;;;;;;;;;;;14.85;22.41;92903.97;2040660;70;20043;-77
2022/03/11 09:38:45;;;;;;;;;;;;;;;15.03;21.35;92898.41;2041341;70;20047;-76
2022/03/11 09:41:11;;;;;;;;;;;;;;;14.39;20.33;92886.13;2041364;70;20146;-75
2022/03/11 09:43:38;;;;;;;;;;;;;;;14.81;21.57;92881.84;2041281;70;20143;-77
2022/03/11 09:46:05;;;;;;;;;;;;;;;16.17;20.77;92889.41;2041117;70;20071;-76
2022/03/11 09:48:34;;;;;;;;;;;;;;;16.26;20.78;92877.00;2040607;70;20555;-77
2022/03/11 09:50:59;;;;;;;;;;;;;;;16.46;20.67;92877.88;2040716;70;20115;-77
2022/03/11 09:53:29;;;;;;;;;;;;;;;16.71;20.84;92879.59;2041434;70;20059;-75
2022/03/11 09:55:55;;;;;;;;;;;;;;;16.61;20.27;92869.94;2038510;70;20643;-77
2022/03/11 09:58:20;;;;;;;;;;;;;;;17.37;20.23;92870.84;2041585;70;20203;-76
2022/03/11 10:00:47;;;;;;;;;;;;;;;16.32;19.04;92865.19;2043271;70;20068;-76
2022/03/11 10:03:13;;;;;;;;;;;;;;;16.52;18.03;92869.59;2041916;70;20131;-75
2022/03/11 10:05:45;;;;;;;;;;;;;;;17.87;18.19;92865.59;2041834;70;20046;-75
2022/03/11 10:08:10;;;;;;;;;;;;;;;18.38;17.54;92864.56;2041151;70;20044;-74
2022/03/11 10:10:36;;;;;;;;;;;;;;;17.32;17.97;92861.44;2041647;70;20055;-78
2022/03/11 10:13:01;;;;;;;;;;;;;;;18.60;18.29;92858.88;2041719;70;20051;-78
2022/03/11 10:15:32;;;;;;;;;;;;;;;18.53;16.35;92855.84;2042675;70;20055;-80
2022/03/11 10:18:02;;;;;;;;;;;;;;;17.63;15.23;92857.59;2043851;70;20059;-78
2022/03/11 10:20:29;;;;;;;;;;;;;;;16.89;16.48;92845.53;2042596;70;20401;-79
2022/03/11 10:22:55;;;;;;;;;;;;;;;16.79;16.29;92845.13;2043589;70;20074;-78
2022/03/11 10:25:24;;;;;;;;;;;;;;;18.11;16.59;92838.00;2041713;70;20131;-83
2022/03/11 10:27:54;;;;;;;;;;;;;;;18.98;16.01;92836.63;2041742;70;20151;-75
2022/03/11 10:30:21;;;;;;;;;;;;;;;19.14;16.21;92833.56;2041378;70;20058;-77
2022/03/11 10:32:53;;;;;;;;;;;;;;;18.59;15.90;92817.50;2041501;70;20052;-78
2022/03/11 10:35:19;;;;;;;;;;;;;;;18.72;16.15;92827.97;2041639;70;20059;-75
2022/03/11 10:38:01;;;;;;;;;;;;;;;19.74;15.21;92828.97;2041477;70;20122;-77
2022/03/11 10:40:29;;;;;;;;;;;;;;;19.88;16.31;92831.50;2041504;70;20051;-76
2022/03/11 10:43:08;;;;;;;;;;;;;;;20.74;15.28;92823.09;2041482;70;20480;-76
2022/03/11 10:45:42;;;;;;;;;;;;;;;20.79;14.39;92829.66;2041343;70;20083;-77
2022/03/11 10:48:08;;;;;;;;;;;;;;;19.79;15.76;92822.00;2041508;70;20059;-77
2022/03/11 10:50:36;;;;;;;;;;;;;;;20.46;13.97;92825.94;2041534;70;20143;-75
2022/03/11 10:53:05;;;;;;;;;;;;;;;21.90;14.41;92816.44;2041364;70;20142;-74
2022/03/11 10:55:31;;;;;;;;;;;;;;;22.79;13.59;92813.84;2041414;70;20050;-75
2022/03/11 10:57:57;;;;;;;;;;;;;;;22.29;13.93;92808.63;2041282;70;20047;-74
2022/03/11 11:00:23;;;;;;;;;;;;;;;22.70;13.58;92804.34;2041300;70;20056;-74
2022/03/11 11:02:52;;;;;;;;;;;;;;;23.46;12.81;92808.44;2041416;70;20056;-74
2022/03/11 11:05:18;;;;;;;;;;;;;;;24.06;11.80;92807.84;2041396;70;20054;-75
2022/03/11 11:07:44;;;;;;;;;;;;;;;24.54;12.09;92798.34;2041313;70;20500;-74
2022/03/11 11:10:11;;;;;;;;;;;;;;;25.38;11.10;92796.19;2041236;70;20054;-77
2022/03/11 11:12:38;;;;;;;;;;;;;;;23.94;10.77;92790.44;2040797;70;20044;-75
2022/03/11 11:15:05;;;;;;;;;;;;;;;26.20;10.74;92794.50;2041148;70;20055;-75
2022/03/11 11:17:31;;;;;;;;;;;;;;;24.92;10.99;92780.69;2040858;70;20052;-75
2022/03/11 11:19:57;;;;;;;;;;;;;;;25.51;11.29;92783.31;2041351;70;20050;-76
2022/03/11 11:22:27;;;;;;;;;;;;;;;25.60;11.36;92785.53;2039819;70;20048;-79
2022/03/11 11:24:55;;;;;;;;;;;;;;;28.32;10.13;92774.31;2038771;70;20602;-76
2022/03/11 11:27:21;;;;;;;;;;;;;;;27.09;9.80;92771.66;2038498;70;20061;-74
2022/03/11 11:29:51;;;;;;;;;;;;;;;28.31;9.00;92767.75;2040378;70;20160;-76
2022/03/11 11:32:18;;;;;;;;;;;;;;;27.02;9.43;92769.44;2040858;70;20063;-75
2022/03/11 11:34:44;;;;;;;;;;;;;;;30.24;9.41;92759.03;2040661;70;20051;-75
2022/03/11 11:37:29;;;;;;;;;;;;;;;28.62;9.28;92762.56;2039963;70;20058;-74
2022/03/11 11:39:55;;;;;;;;;;;;;;;32.16;8.45;92764.78;2040234;70;20163;-73
2022/03/11 11:42:21;;;;;;;;;;;;;;;32.30;7.99;92757.97;2040621;70;20096;-74
2022/03/11 11:44:47;;;;;;;;;;;;;;;30.42;7.96;92751.53;2041164;70;20103;-74
2022/03/11 11:47:17;;;;;;;;;;;;;;;33.37;7.77;92754.91;2041111;70;20040;-75
2022/03/11 11:49:52;;;;;;;;;;;;;;;29.35;8.66;92735.25;2041038;70;20197;-74
2022/03/11 11:52:26;;;;;;;;;;;;;;;31.40;7.76;92736.34;2041265;70;20056;-75
2022/03/11 11:54:52;;;;;;;;;;;;;;;32.21;7.52;92734.13;2040701;70;20043;-76
2022/03/11 11:57:18;;;;;;;;;;;;;;;32.22;7.29;92737.75;2040678;70;20046;-75
2022/03/11 11:59:43;;;;;;;;;;;;;;;30.38;8.39;92723.28;2040561;70;20048;-75
2022/03/11 12:02:23;;;;;;;;;;;;;;;32.52;7.62;92721.84;2041106;70;20164;-75
2022/03/11 12:04:48;;;;;;;;;;;;;;;31.40;7.63;92726.88;2040713;70;20043;-76
2022/03/11 12:07:14;;;;;;;;;;;;;;;31.74;7.66;92729.16;2040726;70;20182;-76
2022/03/11 12:09:47;;;;;;;;;;;;;;;32.95;8.29;92712.19;2040517;70;20066;-74
2022/03/11 12:12:25;;;;;;;;;;;;;;;30.69;7.58;92702.50;2043048;70;20059;-76
2022/03/11 12:15:08;;;;;;;;;;;;;;;29.71;8.27;92703.75;2042003;70;20242;-80
2022/03/11 12:17:37;;;;;;;;;;;;;;;31.00;7.95;92703.50;2040531;70;20047;-77
2022/03/11 12:20:21;;;;;;;;;;;;;;;32.08;8.33;92701.63;2040620;70;20102;-79
2022/03/11 12:22:57;;;;;;;;;;;;;;;33.39;7.87;92699.41;2040231;70;20511;-79
2022/03/11 12:25:27;;;;;;;;;;;;;;;32.71;7.44;92690.09;2040649;70;20147;-76
2022/03/11 12:27:58;;;;;;;;;;;;;;;32.19;7.67;92681.03;2040763;70;20044;-77
2022/03/11 12:30:23;;;;;;;;;;;;;;;33.91;7.22;92681.31;2040422;70;20055;-76
2022/03/11 12:32:50;;;;;;;;;;;;;;;33.64;6.19;92684.25;2040924;70;20071;-74
2022/03/11 12:35:17;;;;;;;;;;;;;;;33.55;7.06;92674.97;2040711;70;20059;-77
2022/03/11 12:37:43;;;;;;;;;;;;;;;34.31;7.04;92672.91;2040961;70;20209;-76
2022/03/11 12:40:11;;;;;;;;;;;;;;;33.01;7.55;92677.06;2040670;70;20095;-76
2022/03/11 12:42:41;;;;;;;;;;;;;;;34.32;7.34;92660.47;2040214;70;20051;-75
2022/03/11 12:45:07;;;;;;;;;;;;;;;32.98;7.51;92658.88;2040474;70;20047;-75
2022/03/11 12:47:37;;;;;;;;;;;;;;;32.59;7.67;92651.03;2040028;70;20112;-74
2022/03/11 12:50:04;;;;;;;;;;;;;;;34.02;7.76;92652.56;2040608;70;20137;-77
2022/03/11 12:52:37;;;;;;;;;;;;;;;34.54;7.32;92643.75;2040039;70;20061;-76